createdAt,value
2019-02-04T00:00:43.693Z,-0.20
2019-02-04T00:05:50.587Z,-0.20
2019-02-04T00:10:59.202Z,-0.30
2019-02-04T00:16:04.500Z,-0.20
2019-02-04T00:21:09.662Z,-0.20
2019-02-04T00:26:14.587Z,-0.20
2019-02-04T00:31:19.794Z,-0.20
2019-02-04T00:36:25.442Z,-0.20
2019-02-04T00:41:31.847Z,-0.20
2019-02-04T00:46:36.784Z,-0.20
2019-02-04T00:51:42.062Z,-0.20
2019-02-04T00:56:47.529Z,-0.20
2019-02-04T01:01:54.236Z,-0.20
2019-02-04T01:07:02.301Z,-0.30
2019-02-04T01:12:08.037Z,-0.20
2019-02-04T01:17:13.953Z,-0.30
2019-02-04T01:22:20.574Z,-0.30
2019-02-04T01:27:26.297Z,-0.30
2019-02-04T01:32:36.380Z,-0.40
2019-02-04T01:37:43.533Z,-0.40
2019-02-04T01:42:48.367Z,-0.50
2019-02-04T01:47:53.210Z,-0.50
2019-02-04T01:52:58.816Z,-0.60
2019-02-04T01:58:03.831Z,-0.60
2019-02-04T02:03:09.110Z,-0.70
2019-02-04T02:08:19.169Z,-0.70
2019-02-04T02:13:24.077Z,-0.80
2019-02-04T02:18:29.080Z,-0.80
2019-02-04T02:23:37.347Z,-0.80
2019-02-04T02:28:43.158Z,-0.80
2019-02-04T02:33:50.973Z,-0.80
2019-02-04T02:38:56.756Z,-0.70
2019-02-04T02:44:03.754Z,-0.70
2019-02-04T02:49:08.852Z,-0.70
2019-02-04T02:54:14.317Z,-0.70
2019-02-04T02:59:19.239Z,-0.70
2019-02-04T03:04:24.497Z,-0.80
2019-02-04T03:09:30.453Z,-0.90
2019-02-04T03:14:36.959Z,-1.00
2019-02-04T03:19:42.801Z,-1.00
2019-02-04T03:24:48.233Z,-1.10
2019-02-04T03:29:54.507Z,-1.20
2019-02-04T03:35:03.870Z,-1.20
2019-02-04T03:40:12.526Z,-1.20
2019-02-04T03:45:20.051Z,-1.10
2019-02-04T03:50:25.609Z,-1.10
2019-02-04T03:55:30.802Z,-1.30
2019-02-04T04:00:39.682Z,-1.40
2019-02-04T04:05:46.407Z,-1.40
2019-02-04T04:10:51.687Z,-1.50
2019-02-04T04:15:58.293Z,-1.70
2019-02-04T04:21:03.934Z,-1.90
2019-02-04T04:26:12.447Z,-2.10
2019-02-04T04:31:20.330Z,-2.30
2019-02-04T04:36:27.810Z,-2.30
2019-02-04T04:41:33.081Z,-2.40
2019-02-04T04:46:38.434Z,-2.60
2019-02-04T04:51:45.496Z,-2.80
2019-02-04T04:56:52.042Z,-2.90
2019-02-04T05:01:58.388Z,-3.10
2019-02-04T05:07:03.506Z,-3.20
2019-02-04T05:12:09.762Z,-3.20
2019-02-04T05:17:17.913Z,-3.30
2019-02-04T05:22:23.647Z,-3.40
2019-02-04T05:27:30.154Z,-3.50
2019-02-04T05:32:35.528Z,-3.50
2019-02-04T05:37:44.393Z,-3.60
2019-02-04T05:42:52.476Z,-3.60
2019-02-04T05:47:58.724Z,-3.70
2019-02-04T05:53:05.241Z,-3.70
2019-02-04T05:58:14.361Z,-3.70
2019-02-04T06:03:21.005Z,-3.80
2019-02-04T06:08:26.405Z,-3.80
2019-02-04T06:13:33.393Z,-4.00
2019-02-04T06:18:39.964Z,-4.00
2019-02-04T06:23:44.919Z,-4.00
2019-02-04T06:28:50.824Z,-4.10
2019-02-04T06:33:57.018Z,-4.10
2019-02-04T06:39:02.442Z,-4.10
2019-02-04T06:44:08.266Z,-4.10
2019-02-04T06:49:14.408Z,-4.20
2019-02-04T06:54:22.207Z,-4.00
2019-02-04T06:59:28.582Z,-3.90
2019-02-04T07:04:33.841Z,-3.90
2019-02-04T07:09:39.656Z,-4.00
2019-02-04T07:14:45.655Z,-3.80
2019-02-04T07:19:51.035Z,-3.70
2019-02-04T07:24:59.369Z,-3.50
2019-02-04T07:30:04.947Z,-3.30
2019-02-04T07:35:11.908Z,-3.10
2019-02-04T07:40:26.100Z,-3.00
2019-02-04T07:45:30.780Z,-2.90
2019-02-04T07:50:36.945Z,-2.90
2019-02-04T07:55:42.482Z,-2.80
2019-02-04T08:00:49.934Z,-2.70
2019-02-04T08:05:55.496Z,-2.60
2019-02-04T08:11:01.471Z,-2.50
2019-02-04T08:16:06.391Z,-2.30
2019-02-04T08:21:13.130Z,-2.00
2019-02-04T08:26:19.311Z,-1.70
2019-02-04T08:31:26.580Z,-1.50
2019-02-04T08:36:43.042Z,-1.40
2019-02-04T08:41:39.313Z,-1.00
2019-02-04T08:46:47.252Z,-0.80
2019-02-04T08:51:53.351Z,-0.30
2019-02-04T08:56:58.898Z,0.10
2019-02-04T09:02:04.742Z,0.30
2019-02-04T09:07:11.012Z,0.40
2019-02-04T09:12:16.458Z,0.20
2019-02-04T09:17:21.475Z,0.60
2019-02-04T09:22:27.276Z,0.90
2019-02-04T09:27:32.517Z,1.50
2019-02-04T09:32:37.386Z,2.10
2019-02-04T09:37:42.485Z,2.60
2019-02-04T09:42:50.336Z,2.50
2019-02-04T09:47:57.541Z,3.00
2019-02-04T09:53:03.370Z,2.70
2019-02-04T09:58:08.916Z,2.60
2019-02-04T10:03:14.391Z,2.80
2019-02-04T10:08:19.934Z,3.20
2019-02-04T10:13:28.340Z,3.70
2019-02-04T10:18:38.089Z,3.20
2019-02-04T10:23:44.088Z,2.70
2019-02-04T10:28:52.164Z,2.10
2019-02-04T10:33:58.201Z,2.00
2019-02-04T10:39:07.903Z,2.00
2019-02-04T10:44:14.065Z,2.10
2019-02-04T10:49:20.896Z,2.20
2019-02-04T10:54:25.681Z,2.50
2019-02-04T10:59:33.141Z,2.60
2019-02-04T11:04:39.847Z,2.80
2019-02-04T11:09:44.781Z,3.10
2019-02-04T11:14:51.221Z,3.20
2019-02-04T11:19:57.255Z,3.70
2019-02-04T11:25:03.043Z,3.50
2019-02-04T11:30:14.561Z,3.40
2019-02-04T11:35:20.441Z,3.30
2019-02-04T11:40:31.449Z,3.50
2019-02-04T11:45:36.567Z,3.30
2019-02-04T11:51:18.454Z,3.10
2019-02-04T11:55:57.478Z,3.10
2019-02-04T12:01:02.997Z,3.40
2019-02-04T12:06:11.621Z,3.60
2019-02-04T12:11:20.144Z,3.60
2019-02-04T12:16:26.749Z,3.70
2019-02-04T12:21:36.817Z,3.70
2019-02-04T12:26:44.515Z,3.80
2019-02-04T12:31:50.511Z,3.90
2019-02-04T12:36:56.022Z,3.50
2019-02-04T12:42:02.249Z,3.50
2019-02-04T12:47:09.903Z,3.60
2019-02-04T12:52:15.957Z,3.80
2019-02-04T12:57:21.867Z,3.70
2019-02-04T13:02:27.319Z,4.00
2019-02-04T13:07:35.931Z,4.20
2019-02-04T13:12:44.384Z,4.10
2019-02-04T13:17:53.875Z,4.20
2019-02-04T13:23:00.513Z,3.80
2019-02-04T13:28:12.401Z,4.20
2019-02-04T13:33:16.370Z,4.20
2019-02-04T13:38:22.396Z,4.50
2019-02-04T13:43:29.096Z,4.60
2019-02-04T13:48:34.821Z,4.70
2019-02-04T13:53:40.016Z,4.50
2019-02-04T13:58:47.832Z,4.60
2019-02-04T14:03:53.663Z,4.60
2019-02-04T14:08:58.831Z,4.50
2019-02-04T14:14:06.082Z,4.50
2019-02-04T14:19:11.100Z,4.40
2019-02-04T14:24:16.369Z,4.40
2019-02-04T14:29:21.498Z,4.40
2019-02-04T14:34:27.666Z,4.20
2019-02-04T14:39:33.786Z,4.10
2019-02-04T14:45:08.213Z,4.00
2019-02-04T14:51:15.495Z,4.10
2019-02-04T14:56:58.738Z,3.80
2019-02-04T15:02:51.191Z,3.50
2019-02-04T15:08:18.454Z,3.40
2019-02-04T15:13:53.974Z,3.50
2019-02-04T15:19:38.042Z,3.30
2019-02-04T15:25:23.164Z,3.10
2019-02-04T15:30:52.124Z,3.00
2019-02-04T15:36:30.979Z,2.70
2019-02-04T15:42:07.124Z,2.40
2019-02-04T15:47:30.477Z,2.20
2019-02-04T15:52:45.109Z,2.00
2019-02-04T15:57:44.097Z,1.80
2019-02-04T16:02:50.205Z,1.60
2019-02-04T16:07:55.782Z,1.30
2019-02-04T16:13:02.109Z,1.00
2019-02-04T16:18:11.072Z,0.80
2019-02-04T16:23:16.403Z,0.60
2019-02-04T16:28:23.692Z,0.20
2019-02-04T16:33:30.052Z,0.00
2019-02-04T16:38:35.215Z,-0.30
2019-02-04T16:43:41.994Z,-0.60
2019-02-04T16:48:47.490Z,-0.80
2019-02-04T16:53:57.665Z,-1.10
2019-02-04T16:59:04.021Z,-1.20
2019-02-04T17:04:12.511Z,-1.40
2019-02-04T17:09:17.454Z,-1.40
2019-02-04T17:14:22.480Z,-1.50
2019-02-04T17:19:28.117Z,-1.50
2019-02-04T17:24:35.805Z,-1.40
2019-02-04T17:29:41.072Z,-1.20
2019-02-04T17:34:49.233Z,-1.20
2019-02-04T17:39:56.130Z,-1.40
2019-02-04T17:45:04.564Z,-1.50
2019-02-04T17:50:11.737Z,-1.70
2019-02-04T17:55:19.542Z,-1.80
2019-02-04T18:00:40.914Z,-2.00
2019-02-04T18:05:49.838Z,-2.10
2019-02-04T18:11:00.055Z,-2.20
2019-02-04T18:16:03.358Z,-2.20
2019-02-04T18:21:10.800Z,-2.20
2019-02-04T18:26:19.749Z,-2.20
2019-02-04T18:31:29.098Z,-2.20
2019-02-04T18:36:43.299Z,-2.20
2019-02-04T18:41:50.892Z,-1.70
2019-02-04T18:46:59.063Z,-1.20
2019-02-04T18:52:09.392Z,-1.10
2019-02-04T18:57:18.155Z,-1.40
2019-02-04T19:02:23.356Z,-1.70
2019-02-04T19:07:29.526Z,-1.90
2019-02-04T19:12:35.346Z,-2.10
2019-02-04T19:17:40.990Z,-2.20
2019-02-04T19:22:56.099Z,-2.30
2019-02-04T19:28:03.148Z,-2.40
2019-02-04T19:33:22.022Z,-2.40
2019-02-04T19:38:29.808Z,-2.40
2019-02-04T19:43:35.734Z,-2.40
2019-02-04T19:48:41.578Z,-2.30
2019-02-04T19:53:47.274Z,-2.30
2019-02-04T19:58:53.733Z,-2.30
2019-02-04T20:03:58.945Z,-2.30
2019-02-04T20:09:09.707Z,-2.30
2019-02-04T20:14:15.502Z,-2.30
2019-02-04T20:19:21.623Z,-2.40
2019-02-04T20:24:33.262Z,-2.30
2019-02-04T20:29:34.316Z,-2.30
2019-02-04T20:34:40.036Z,-2.40
2019-02-04T20:39:45.790Z,-2.50
2019-02-04T20:44:51.391Z,-2.40
2019-02-04T20:50:02.068Z,-2.50
2019-02-04T20:55:09.135Z,-2.50
2019-02-04T21:00:18.312Z,-2.70
2019-02-04T21:05:23.780Z,-2.80
2019-02-04T21:10:30.192Z,-2.80
2019-02-04T21:15:35.952Z,-2.90
2019-02-04T21:20:41.235Z,-2.90
2019-02-04T21:25:46.709Z,-3.00
2019-02-04T21:30:53.353Z,-2.90
2019-02-04T21:35:58.694Z,-2.80
2019-02-04T21:41:03.373Z,-2.80
2019-02-04T21:46:10.889Z,-2.60
2019-02-04T21:51:15.711Z,-2.60
2019-02-04T21:56:21.166Z,-2.50
2019-02-04T22:01:26.817Z,-2.50
2019-02-04T22:06:32.893Z,-2.50
2019-02-04T22:11:38.851Z,-2.40
2019-02-04T22:16:44.089Z,-2.30
2019-02-04T22:21:49.725Z,-2.40
2019-02-04T22:26:55.097Z,-2.40
2019-02-04T22:32:00.385Z,-2.30
2019-02-04T22:37:05.743Z,-2.30
2019-02-04T22:42:10.874Z,-2.30
2019-02-04T22:47:16.268Z,-2.30
2019-02-04T22:52:21.922Z,-2.30
2019-02-04T22:57:26.895Z,-2.30
2019-02-04T23:02:31.989Z,-2.30
2019-02-04T23:07:36.727Z,-2.30
2019-02-04T23:12:41.931Z,-2.30
2019-02-04T23:17:46.830Z,-2.30
2019-02-04T23:22:52.745Z,-2.30
2019-02-04T23:27:58.116Z,-2.30
2019-02-04T23:33:03.889Z,-2.30
2019-02-04T23:38:09.408Z,-2.30
2019-02-04T23:43:14.796Z,-2.30
2019-02-04T23:48:20.776Z,-2.30
2019-02-04T23:53:29.311Z,-2.40
2019-02-04T23:58:34.237Z,-2.40
